createdAt,value
2022-12-07T00:01:37.482Z,10.40
2022-12-07T00:04:07.831Z,11.13
2022-12-07T00:06:41.821Z,10.98
2022-12-07T00:09:10.966Z,10.73
2022-12-07T00:11:37.713Z,10.63
2022-12-07T00:14:07.197Z,9.52
2022-12-07T00:16:35.295Z,9.82
2022-12-07T00:19:02.611Z,12.20
2022-12-07T00:21:30.480Z,11.60
2022-12-07T00:23:57.317Z,11.50
2022-12-07T00:26:34.883Z,11.35
2022-12-07T00:29:04.622Z,11.20
2022-12-07T00:31:34.847Z,11.70
2022-12-07T00:34:01.658Z,11.75
2022-12-07T00:36:28.330Z,12.70
2022-12-07T00:38:55.779Z,11.43
2022-12-07T00:41:24.574Z,10.45
2022-12-07T00:43:51.787Z,11.85
2022-12-07T00:46:18.832Z,10.70
2022-12-07T00:48:45.499Z,13.30
2022-12-07T00:51:16.584Z,13.20
2022-12-07T00:53:43.499Z,14.13
2022-12-07T00:56:21.259Z,11.23
2022-12-07T00:58:58.257Z,12.88
2022-12-07T01:01:26.157Z,13.25
2022-12-07T01:03:52.897Z,11.07
2022-12-07T01:06:20.692Z,13.25
2022-12-07T01:08:47.265Z,13.50
2022-12-07T01:11:16.787Z,11.00
2022-12-07T01:13:43.476Z,12.07
2022-12-07T01:16:12.135Z,13.60
2022-12-07T01:18:38.897Z,13.20
2022-12-07T01:21:14.730Z,11.85
2022-12-07T01:23:41.538Z,11.05
2022-12-07T01:26:11.835Z,11.82
2022-12-07T01:28:38.583Z,10.07
2022-12-07T01:31:13.320Z,11.90
2022-12-07T01:33:40.314Z,12.48
2022-12-07T01:36:14.030Z,14.45
2022-12-07T01:38:40.716Z,13.07
2022-12-07T01:41:07.328Z,10.35
2022-12-07T01:43:34.621Z,11.27
2022-12-07T01:46:02.143Z,12.55
2022-12-07T01:48:35.848Z,14.55
2022-12-07T01:51:05.209Z,13.40
2022-12-07T01:53:31.978Z,12.90
2022-12-07T01:55:58.621Z,16.55
2022-12-07T01:58:25.244Z,12.68
2022-12-07T02:00:51.826Z,13.40
2022-12-07T02:03:39.915Z,13.85
2022-12-07T02:06:07.428Z,13.10
2022-12-07T02:08:34.758Z,12.38
2022-12-07T02:11:02.675Z,14.73
2022-12-07T02:13:31.333Z,11.88
2022-12-07T02:16:04.959Z,11.05
2022-12-07T02:18:50.940Z,16.33
2022-12-07T02:21:41.308Z,12.73
2022-12-07T02:24:26.618Z,12.45
2022-12-07T02:26:59.242Z,11.90
2022-12-07T02:29:28.161Z,12.73
2022-12-07T02:32:23.652Z,13.23
2022-12-07T02:35:14.536Z,11.35
2022-12-07T02:38:00.999Z,12.95
2022-12-07T02:40:41.203Z,11.23
2022-12-07T02:43:09.172Z,10.60
2022-12-07T02:45:36.801Z,11.32
2022-12-07T02:48:03.639Z,11.50
2022-12-07T02:50:30.250Z,12.77
2022-12-07T02:52:56.903Z,10.60
2022-12-07T02:55:27.171Z,12.23
2022-12-07T02:58:30.339Z,12.10
2022-12-07T03:01:10.400Z,11.25
2022-12-07T03:03:36.964Z,11.48
2022-12-07T03:06:32.381Z,12.20
2022-12-07T03:09:16.294Z,10.57
2022-12-07T03:11:54.267Z,12.10
2022-12-07T03:14:34.204Z,12.90
2022-12-07T03:17:14.240Z,11.65
2022-12-07T03:19:41.223Z,12.25
2022-12-07T03:22:10.214Z,12.00
2022-12-07T03:24:48.869Z,12.10
2022-12-07T03:27:26.954Z,12.68
2022-12-07T03:30:06.886Z,11.45
2022-12-07T03:32:43.396Z,11.75
2022-12-07T03:35:40.828Z,11.15
2022-12-07T03:38:17.864Z,13.52
2022-12-07T03:41:04.201Z,12.25
2022-12-07T03:43:31.119Z,13.88
2022-12-07T03:46:28.390Z,11.70
2022-12-07T03:49:13.093Z,11.35
2022-12-07T03:51:57.876Z,12.38
2022-12-07T03:54:27.759Z,11.18
2022-12-07T03:56:54.337Z,14.45
2022-12-07T03:59:20.965Z,11.93
2022-12-07T04:01:56.688Z,12.27
2022-12-07T04:04:24.536Z,12.77
2022-12-07T04:06:51.369Z,12.32
2022-12-07T04:09:18.151Z,13.13
2022-12-07T04:11:44.823Z,11.93
2022-12-07T04:14:20.010Z,14.57
2022-12-07T04:16:51.492Z,13.60
2022-12-07T04:19:19.943Z,14.38
2022-12-07T04:21:46.993Z,13.27
2022-12-07T04:24:14.596Z,14.32
2022-12-07T04:26:42.354Z,14.68
2022-12-07T04:29:09.649Z,14.60
2022-12-07T04:31:36.879Z,17.55
2022-12-07T04:34:03.991Z,14.95
2022-12-07T04:36:30.866Z,15.20
2022-12-07T04:38:57.446Z,15.68
2022-12-07T04:41:28.109Z,15.02
2022-12-07T04:44:02.793Z,17.40
2022-12-07T04:46:30.554Z,13.75
2022-12-07T04:48:57.505Z,15.20
2022-12-07T04:51:26.266Z,16.23
2022-12-07T04:53:53.187Z,16.90
2022-12-07T04:56:19.892Z,14.88
2022-12-07T04:58:47.672Z,14.85
2022-12-07T05:01:15.330Z,14.15
2022-12-07T05:03:42.013Z,16.05
2022-12-07T05:06:13.384Z,15.13
2022-12-07T05:08:40.738Z,15.18
2022-12-07T05:11:08.299Z,12.88
2022-12-07T05:13:35.264Z,14.52
2022-12-07T05:16:01.930Z,14.50
2022-12-07T05:18:28.700Z,15.45
2022-12-07T05:20:55.365Z,17.17
2022-12-07T05:23:21.982Z,18.02
2022-12-07T05:25:48.549Z,17.15
2022-12-07T05:28:15.177Z,18.05
2022-12-07T05:30:41.922Z,17.35
2022-12-07T05:33:08.543Z,19.10
2022-12-07T05:35:35.164Z,18.73
2022-12-07T05:38:03.150Z,20.88
2022-12-07T05:40:29.752Z,19.02
2022-12-07T05:42:59.989Z,18.33
2022-12-07T05:45:30.732Z,19.50
2022-12-07T05:47:57.439Z,18.67
2022-12-07T05:50:24.129Z,17.30
2022-12-07T05:52:50.712Z,19.73
2022-12-07T05:55:17.259Z,17.92
2022-12-07T05:58:06.520Z,18.92
2022-12-07T06:00:33.354Z,17.10
2022-12-07T06:03:00.564Z,16.05
2022-12-07T06:05:27.268Z,16.13
2022-12-07T06:07:53.927Z,17.63
2022-12-07T06:10:20.681Z,15.88
2022-12-07T06:12:47.395Z,16.52
2022-12-07T06:15:14.465Z,15.38
2022-12-07T06:17:41.086Z,14.40
2022-12-07T06:20:08.296Z,15.93
2022-12-07T06:22:34.883Z,16.00
2022-12-07T06:25:08.112Z,15.75
2022-12-07T06:27:36.457Z,18.17
2022-12-07T06:30:07.377Z,15.90
2022-12-07T06:32:34.696Z,16.63
2022-12-07T06:35:01.958Z,17.90
2022-12-07T06:37:28.539Z,16.77
2022-12-07T06:39:55.152Z,15.82
2022-12-07T06:42:22.225Z,14.35
2022-12-07T06:44:48.776Z,15.68
2022-12-07T06:50:02.248Z,14.68
2022-12-07T06:52:29.139Z,15.65
2022-12-07T06:54:55.867Z,17.83
2022-12-07T06:57:23.789Z,13.35
2022-12-07T06:59:50.345Z,15.60
2022-12-07T07:02:17.145Z,16.92
2022-12-07T07:04:43.787Z,14.27
2022-12-07T07:07:10.501Z,12.25
2022-12-07T07:09:37.149Z,14.35
2022-12-07T07:12:03.839Z,13.57
2022-12-07T07:14:30.422Z,13.65
2022-12-07T07:16:57.059Z,14.65
2022-12-07T07:19:23.759Z,13.95
2022-12-07T07:21:50.330Z,14.50
2022-12-07T07:24:16.901Z,12.48
2022-12-07T07:26:43.466Z,12.43
2022-12-07T07:29:10.012Z,13.20
2022-12-07T07:31:36.781Z,13.55
2022-12-07T07:34:03.354Z,10.93
2022-12-07T07:36:29.924Z,10.27
2022-12-07T07:38:56.554Z,9.95
2022-12-07T07:41:23.171Z,12.10
2022-12-07T07:43:49.724Z,14.18
2022-12-07T07:46:16.361Z,10.98
2022-12-07T07:48:42.939Z,9.00
2022-12-07T07:51:09.648Z,10.18
2022-12-07T07:53:36.227Z,9.35
2022-12-07T07:56:02.878Z,10.70
2022-12-07T07:58:29.456Z,12.30
2022-12-07T08:00:56.299Z,11.82
2022-12-07T08:03:23.018Z,10.88
2022-12-07T08:05:49.574Z,10.65
2022-12-07T08:08:16.343Z,10.93
2022-12-07T08:10:43.110Z,10.15
2022-12-07T08:13:12.293Z,12.15
2022-12-07T08:15:39.817Z,8.40
2022-12-07T08:18:06.431Z,9.40
2022-12-07T08:20:33.971Z,9.93
2022-12-07T08:23:00.802Z,8.55
2022-12-07T08:25:27.747Z,9.60
2022-12-07T08:27:54.570Z,7.00
2022-12-07T08:30:21.644Z,7.00
2022-12-07T08:32:48.792Z,7.03
2022-12-07T08:35:15.760Z,10.40
2022-12-07T08:37:42.594Z,8.15
2022-12-07T08:40:10.724Z,9.00
2022-12-07T08:42:41.220Z,6.70
2022-12-07T08:45:13.343Z,9.35
2022-12-07T08:47:47.744Z,10.27
2022-12-07T08:50:14.421Z,10.40
2022-12-07T08:52:41.608Z,8.15
2022-12-07T08:55:08.708Z,9.70
2022-12-07T08:57:35.371Z,8.15
2022-12-07T09:00:02.458Z,8.73
2022-12-07T09:02:29.183Z,7.00
2022-12-07T09:04:55.754Z,6.50
2022-12-07T09:07:22.363Z,10.25
2022-12-07T09:09:50.256Z,18.15
2022-12-07T09:12:17.470Z,17.67
2022-12-07T09:14:44.033Z,10.88
2022-12-07T09:19:52.093Z,10.00
2022-12-07T09:22:18.767Z,11.73
2022-12-07T09:24:46.567Z,11.65
2022-12-07T09:27:13.509Z,10.45
2022-12-07T09:29:40.116Z,12.00
2022-12-07T09:32:11.357Z,13.88
2022-12-07T09:34:38.571Z,8.20
2022-12-07T09:37:05.895Z,10.40
2022-12-07T09:39:32.501Z,8.35
2022-12-07T09:42:00.039Z,8.65
2022-12-07T09:44:27.381Z,9.07
2022-12-07T09:46:54.162Z,6.72
2022-12-07T09:49:23.266Z,7.47
2022-12-07T09:51:58.532Z,7.55
2022-12-07T09:54:25.063Z,5.85
2022-12-07T09:56:51.700Z,6.60
2022-12-07T09:59:19.329Z,6.22
2022-12-07T10:01:49.877Z,7.45
2022-12-07T10:04:18.054Z,5.88
2022-12-07T10:06:44.805Z,6.50
2022-12-07T10:09:16.029Z,4.72
2022-12-07T10:12:04.149Z,5.80
2022-12-07T10:14:58.807Z,6.55
2022-12-07T10:17:32.671Z,6.50
2022-12-07T10:20:25.278Z,4.65
2022-12-07T10:22:59.264Z,6.25
2022-12-07T10:25:33.718Z,5.30
2022-12-07T10:28:00.388Z,5.75
2022-12-07T10:30:27.392Z,6.70
2022-12-07T10:32:54.796Z,6.22
2022-12-07T10:35:29.552Z,7.43
2022-12-07T10:37:59.026Z,6.18
2022-12-07T10:40:37.841Z,5.55
2022-12-07T10:43:20.470Z,5.05
2022-12-07T10:46:13.232Z,5.95
2022-12-07T10:49:04.637Z,8.75
2022-12-07T10:51:39.559Z,7.68
2022-12-07T10:54:24.473Z,6.82
2022-12-07T10:57:09.310Z,7.75
2022-12-07T10:59:57.117Z,7.55
2022-12-07T11:02:23.867Z,7.38
2022-12-07T11:04:53.475Z,6.53
2022-12-07T11:07:20.060Z,8.15
2022-12-07T11:10:34.628Z,5.97
2022-12-07T11:13:13.281Z,6.05
2022-12-07T11:16:15.427Z,5.65
2022-12-07T11:18:49.691Z,5.75
2022-12-07T11:21:20.128Z,4.97
2022-12-07T11:24:18.089Z,4.50
2022-12-07T11:26:58.727Z,4.93
2022-12-07T11:29:52.681Z,5.97
2022-12-07T11:32:28.587Z,4.20
2022-12-07T11:35:00.857Z,5.88
2022-12-07T11:40:29.132Z,5.38
2022-12-07T11:43:14.895Z,5.93
2022-12-07T11:45:45.945Z,6.30
2022-12-07T11:48:40.653Z,7.28
2022-12-07T11:51:09.169Z,6.22
2022-12-07T11:53:50.637Z,12.77
2022-12-07T11:56:19.515Z,8.50
2022-12-07T11:58:52.175Z,8.65
2022-12-07T12:01:34.883Z,8.98
2022-12-07T12:04:10.665Z,12.65
2022-12-07T12:06:42.756Z,9.13
2022-12-07T12:09:38.912Z,10.50
2022-12-07T12:15:32.530Z,10.02
2022-12-07T12:18:17.939Z,12.80
2022-12-07T12:20:46.588Z,11.10
2022-12-07T12:23:30.628Z,11.10
2022-12-07T12:25:58.918Z,9.63
2022-12-07T12:28:30.932Z,9.45
2022-12-07T12:31:13.124Z,11.85
2022-12-07T12:33:43.901Z,11.38
2022-12-07T12:36:16.803Z,9.13
2022-12-07T12:38:59.800Z,8.23
2022-12-07T12:41:39.492Z,10.38
2022-12-07T12:44:35.015Z,9.63
2022-12-07T12:47:05.857Z,8.90
2022-12-07T12:49:40.710Z,8.50
2022-12-07T12:52:16.583Z,6.82
2022-12-07T12:55:09.421Z,10.05
2022-12-07T12:57:36.663Z,7.50
2022-12-07T13:00:24.861Z,8.20
2022-12-07T13:02:55.877Z,8.95
2022-12-07T13:05:24.908Z,9.05
2022-12-07T13:08:16.932Z,7.53
2022-12-07T13:10:47.249Z,8.00
2022-12-07T13:13:13.761Z,8.25
2022-12-07T13:15:50.265Z,9.98
2022-12-07T13:18:37.759Z,10.32
2022-12-07T13:21:10.288Z,9.35
2022-12-07T13:23:40.552Z,9.93
2022-12-07T13:26:33.381Z,9.43
2022-12-07T13:29:21.238Z,10.85
2022-12-07T13:31:55.475Z,10.93
2022-12-07T13:34:39.489Z,12.10
2022-12-07T13:37:17.858Z,12.57
2022-12-07T13:39:51.946Z,10.65
2022-12-07T13:42:32.523Z,13.15
2022-12-07T13:45:00.890Z,11.50
2022-12-07T13:47:45.999Z,10.73
2022-12-07T13:50:29.927Z,12.18
2022-12-07T13:52:58.137Z,15.82
2022-12-07T13:55:24.781Z,13.75
2022-12-07T13:57:53.223Z,19.20
2022-12-07T14:00:20.909Z,14.27
2022-12-07T14:02:57.845Z,22.38
2022-12-07T14:05:29.192Z,23.20
2022-12-07T14:07:58.940Z,15.10
2022-12-07T14:10:29.674Z,12.32
2022-12-07T14:12:57.741Z,11.45
2022-12-07T14:15:34.843Z,12.70
2022-12-07T14:18:04.746Z,11.57
2022-12-07T14:20:37.443Z,16.40
2022-12-07T14:23:10.235Z,14.88
2022-12-07T14:25:51.697Z,13.57
2022-12-07T14:28:28.649Z,13.23
2022-12-07T14:30:55.359Z,12.75
2022-12-07T14:33:22.277Z,14.13
2022-12-07T14:35:48.836Z,12.93
2022-12-07T14:38:15.469Z,16.55
2022-12-07T14:40:42.034Z,11.93
2022-12-07T14:43:13.235Z,12.00
2022-12-07T14:45:40.771Z,11.65
2022-12-07T14:53:50.072Z,15.80
2022-12-07T14:56:19.964Z,13.90
2022-12-07T14:58:49.114Z,12.93
2022-12-07T15:01:15.724Z,12.60
2022-12-07T15:03:42.472Z,14.63
2022-12-07T15:06:11.639Z,14.13
2022-12-07T15:08:38.197Z,15.73
2022-12-07T15:11:04.880Z,15.32
2022-12-07T15:13:49.776Z,15.10
2022-12-07T15:16:19.147Z,13.07
2022-12-07T15:19:18.845Z,13.77
2022-12-07T15:21:32.774Z,13.55
2022-12-07T15:24:03.981Z,13.18
2022-12-07T15:26:30.600Z,12.70
2022-12-07T15:28:57.259Z,12.65
2022-12-07T15:31:53.829Z,12.20
2022-12-07T15:34:10.483Z,10.95
2022-12-07T15:36:37.173Z,13.18
2022-12-07T15:39:19.435Z,11.90
2022-12-07T15:41:46.095Z,13.35
2022-12-07T15:44:32.112Z,12.30
2022-12-07T15:46:58.888Z,15.30
2022-12-07T15:49:25.519Z,16.38
2022-12-07T15:51:52.534Z,17.05
2022-12-07T15:54:21.747Z,17.63
2022-12-07T15:56:48.337Z,15.77
2022-12-07T15:59:15.080Z,15.23
2022-12-07T16:01:42.158Z,17.73
2022-12-07T16:04:08.998Z,15.30
2022-12-07T16:06:35.861Z,16.90
2022-12-07T16:09:02.688Z,14.60
2022-12-07T16:11:29.285Z,13.75
2022-12-07T16:13:55.925Z,15.40
2022-12-07T16:16:25.632Z,15.25
2022-12-07T16:18:53.091Z,17.13
2022-12-07T16:21:24.866Z,17.92
2022-12-07T16:23:52.202Z,18.73
2022-12-07T16:26:21.413Z,18.40
2022-12-07T16:28:53.614Z,16.58
2022-12-07T16:31:22.453Z,16.03
2022-12-07T16:33:50.197Z,16.38
2022-12-07T16:36:33.981Z,17.65
2022-12-07T16:39:04.504Z,20.77
2022-12-07T16:41:31.787Z,18.85
2022-12-07T16:43:58.657Z,18.45
2022-12-07T16:46:25.438Z,15.15
2022-12-07T16:48:52.043Z,17.70
2022-12-07T16:51:18.664Z,15.57
2022-12-07T16:53:45.304Z,18.90
2022-12-07T16:56:13.746Z,17.50
2022-12-07T16:58:40.787Z,18.45
2022-12-07T17:01:21.292Z,18.00
2022-12-07T17:03:48.022Z,18.38
2022-12-07T17:06:16.697Z,15.07
2022-12-07T17:08:43.869Z,19.23
2022-12-07T17:11:24.371Z,18.50
2022-12-07T17:14:09.711Z,17.20
2022-12-07T17:16:36.625Z,20.77
2022-12-07T17:19:11.061Z,17.25
2022-12-07T17:21:38.006Z,19.75
2022-12-07T17:24:06.590Z,22.38
2022-12-07T17:26:35.786Z,22.27
2022-12-07T17:29:04.228Z,20.23
2022-12-07T17:31:31.233Z,18.67
2022-12-07T17:33:57.882Z,18.88
2022-12-07T17:36:27.006Z,14.93
2022-12-07T17:38:53.834Z,15.38
2022-12-07T17:41:40.052Z,18.88
2022-12-07T17:44:08.653Z,18.23
2022-12-07T17:46:35.744Z,17.65
2022-12-07T17:49:02.783Z,17.92
2022-12-07T17:51:47.961Z,17.05
2022-12-07T17:54:14.790Z,14.82
2022-12-07T17:56:41.541Z,19.63
2022-12-07T17:59:08.467Z,13.75
2022-12-07T18:01:35.371Z,17.42
2022-12-07T18:04:02.546Z,19.27
2022-12-07T18:06:29.218Z,21.30
2022-12-07T18:08:55.799Z,19.30
2022-12-07T18:11:22.469Z,17.30
2022-12-07T18:13:49.138Z,19.80
2022-12-07T18:16:23.101Z,15.95
2022-12-07T18:18:52.830Z,13.80
2022-12-07T18:21:25.577Z,20.88
2022-12-07T18:23:54.068Z,14.18
2022-12-07T18:26:23.590Z,15.52
2022-12-07T18:28:50.547Z,14.13
2022-12-07T18:31:17.758Z,14.05
2022-12-07T18:33:45.265Z,14.80
2022-12-07T18:36:12.464Z,15.45
2022-12-07T18:38:39.629Z,17.35
2022-12-07T18:41:10.468Z,17.40
2022-12-07T18:43:37.063Z,20.38
2022-12-07T18:46:13.497Z,15.02
2022-12-07T18:48:40.234Z,17.73
2022-12-07T18:51:07.696Z,16.55
2022-12-07T18:53:34.491Z,16.83
2022-12-07T18:56:07.561Z,15.57
2022-12-07T19:01:01.361Z,15.35
2022-12-07T19:03:32.996Z,15.32
2022-12-07T19:06:01.063Z,15.32
2022-12-07T19:08:27.743Z,13.10
2022-12-07T19:10:54.347Z,14.85
2022-12-07T19:13:20.992Z,13.20
2022-12-07T19:15:47.642Z,13.77
2022-12-07T19:18:14.209Z,14.38
2022-12-07T19:20:40.825Z,13.30
2022-12-07T19:23:07.404Z,15.48
2022-12-07T19:25:34.021Z,14.68
2022-12-07T19:28:00.601Z,15.00
2022-12-07T19:30:27.153Z,13.23
2022-12-07T19:32:53.759Z,17.50
2022-12-07T19:35:20.368Z,16.27
2022-12-07T19:37:46.955Z,16.50
2022-12-07T19:40:13.672Z,16.67
2022-12-07T19:42:40.333Z,18.13
2022-12-07T19:45:07.348Z,14.10
2022-12-07T19:47:33.981Z,16.92
2022-12-07T19:50:00.536Z,16.88
2022-12-07T19:52:28.352Z,15.27
2022-12-07T19:54:57.530Z,16.33
2022-12-07T19:57:24.109Z,13.85
2022-12-07T19:59:50.757Z,17.83
2022-12-07T20:02:17.644Z,17.35
2022-12-07T20:04:44.413Z,16.83
2022-12-07T20:07:11.077Z,18.33
2022-12-07T20:09:37.706Z,16.38
2022-12-07T20:12:22.990Z,16.77
2022-12-07T20:14:49.577Z,16.88
2022-12-07T20:17:16.235Z,14.90
2022-12-07T20:19:42.851Z,16.75
2022-12-07T20:22:09.528Z,17.17
2022-12-07T20:24:36.479Z,15.57
2022-12-07T20:27:04.402Z,13.82
2022-12-07T20:29:31.254Z,18.10
2022-12-07T20:31:58.155Z,18.90
2022-12-07T20:34:26.343Z,17.20
2022-12-07T20:36:54.271Z,17.50
2022-12-07T20:39:23.573Z,15.88
2022-12-07T20:42:10.348Z,17.35
2022-12-07T20:44:37.035Z,16.17
2022-12-07T20:47:05.350Z,18.60
2022-12-07T20:49:32.114Z,15.88
2022-12-07T20:51:58.720Z,19.30
2022-12-07T20:54:25.923Z,18.15
2022-12-07T20:56:55.748Z,17.92
2022-12-07T20:59:22.607Z,25.75
2022-12-07T21:01:49.589Z,28.13
2022-12-07T21:04:18.503Z,22.77
2022-12-07T21:06:45.244Z,20.50
2022-12-07T21:09:12.089Z,24.75
2022-12-07T21:11:39.455Z,20.67
2022-12-07T21:14:06.293Z,18.17
2022-12-07T21:16:32.921Z,12.82
2022-12-07T21:19:02.593Z,13.15
2022-12-07T21:21:30.520Z,11.93
2022-12-07T21:24:02.378Z,13.20
2022-12-07T21:26:30.617Z,15.00
2022-12-07T21:28:57.442Z,15.88
2022-12-07T21:31:24.655Z,15.77
2022-12-07T21:33:51.585Z,13.18
2022-12-07T21:36:21.223Z,13.50
2022-12-07T21:38:48.586Z,13.98
2022-12-07T21:41:19.132Z,14.63
2022-12-07T21:43:46.230Z,12.02
2022-12-07T21:46:13.427Z,13.63
2022-12-07T21:48:40.852Z,14.27
2022-12-07T21:51:09.708Z,13.95
2022-12-07T21:53:37.191Z,12.63
2022-12-07T21:56:04.630Z,13.52
2022-12-07T21:58:31.794Z,15.07
2022-12-07T22:00:59.539Z,17.48
2022-12-07T22:03:26.223Z,16.33
2022-12-07T22:05:52.901Z,14.88
2022-12-07T22:08:19.726Z,15.82
2022-12-07T22:10:46.306Z,14.85
2022-12-07T22:13:12.927Z,15.18
2022-12-07T22:15:40.996Z,14.60
2022-12-07T22:18:08.080Z,14.52
2022-12-07T22:20:35.192Z,15.52
2022-12-07T22:23:02.258Z,16.17
2022-12-07T22:25:28.814Z,16.55
2022-12-07T22:27:55.410Z,15.20
2022-12-07T22:30:21.971Z,13.55
2022-12-07T22:32:49.423Z,15.57
2022-12-07T22:35:16.406Z,18.92
2022-12-07T22:37:43.022Z,17.08
2022-12-07T22:40:10.114Z,14.07
2022-12-07T22:42:36.730Z,15.23
2022-12-07T22:45:04.039Z,16.38
2022-12-07T22:47:30.915Z,18.33
2022-12-07T22:49:57.583Z,17.08
2022-12-07T22:52:24.358Z,18.65
2022-12-07T22:54:50.922Z,15.38
2022-12-07T22:57:17.722Z,17.05
2022-12-07T22:59:44.422Z,17.88
2022-12-07T23:02:11.031Z,19.08
2022-12-07T23:04:37.724Z,18.13
2022-12-07T23:07:04.371Z,16.25
2022-12-07T23:09:30.924Z,16.42
2022-12-07T23:12:16.096Z,19.35
2022-12-07T23:14:42.671Z,19.30
2022-12-07T23:17:09.296Z,17.52
2022-12-07T23:19:35.913Z,17.88
2022-12-07T23:22:02.549Z,19.85
2022-12-07T23:24:29.345Z,17.75
2022-12-07T23:26:55.999Z,21.48
2022-12-07T23:29:22.560Z,17.63
2022-12-07T23:31:49.746Z,20.75
2022-12-07T23:34:16.598Z,17.48
2022-12-07T23:36:43.253Z,19.48
2022-12-07T23:39:12.025Z,18.67
2022-12-07T23:41:38.765Z,19.67
2022-12-07T23:44:05.495Z,19.15
2022-12-07T23:46:32.936Z,20.23
2022-12-07T23:49:01.311Z,20.38
2022-12-07T23:51:27.946Z,23.42
2022-12-07T23:53:55.083Z,20.55
2022-12-07T23:56:26.490Z,20.00
2022-12-07T23:58:53.573Z,21.35
